createdAt,value
2023-02-16T00:00:42.321Z,18.02
2023-02-16T00:03:22.707Z,20.10
2023-02-16T00:05:50.529Z,20.42
2023-02-16T00:08:17.796Z,18.08
2023-02-16T00:11:05.347Z,18.17
2023-02-16T00:13:44.913Z,17.35
2023-02-16T00:16:23.466Z,19.92
2023-02-16T00:18:51.107Z,18.50
2023-02-16T00:21:19.019Z,18.48
2023-02-16T00:23:46.792Z,17.92
2023-02-16T00:26:16.480Z,14.05
2023-02-16T00:28:44.055Z,18.80
2023-02-16T00:31:20.832Z,18.60
2023-02-16T00:33:48.263Z,14.50
2023-02-16T00:36:15.583Z,13.82
2023-02-16T00:38:43.036Z,16.83
2023-02-16T00:41:36.762Z,15.07
2023-02-16T00:44:04.319Z,18.10
2023-02-16T00:46:31.682Z,16.85
2023-02-16T00:48:58.505Z,16.95
2023-02-16T00:51:26.573Z,14.57
2023-02-16T00:53:54.050Z,18.15
2023-02-16T00:56:21.599Z,17.25
2023-02-16T00:58:51.958Z,18.30
2023-02-16T01:01:21.700Z,18.90
2023-02-16T01:03:49.197Z,18.50
2023-02-16T01:06:35.971Z,17.02
2023-02-16T01:09:35.658Z,17.83
2023-02-16T01:12:05.186Z,15.95
2023-02-16T01:14:33.591Z,18.92
2023-02-16T01:17:00.809Z,19.02
2023-02-16T01:19:27.638Z,17.58
2023-02-16T01:21:54.831Z,18.23
2023-02-16T01:24:21.670Z,16.55
2023-02-16T01:26:50.567Z,18.33
2023-02-16T01:29:19.901Z,19.90
2023-02-16T01:31:47.190Z,16.17
2023-02-16T01:34:15.227Z,18.63
2023-02-16T01:36:47.741Z,18.00
2023-02-16T01:39:20.100Z,16.65
2023-02-16T01:41:47.317Z,19.92
2023-02-16T01:44:29.815Z,18.77
2023-02-16T01:47:15.402Z,18.48
2023-02-16T01:49:42.251Z,19.65
2023-02-16T01:52:33.988Z,19.13
2023-02-16T01:55:04.540Z,20.20
2023-02-16T01:57:46.248Z,20.70
2023-02-16T02:00:25.136Z,18.42
2023-02-16T02:03:20.281Z,18.77
2023-02-16T02:05:48.682Z,20.73
2023-02-16T02:08:30.511Z,17.05
2023-02-16T02:11:16.294Z,18.88
2023-02-16T02:14:30.033Z,17.50
2023-02-16T02:17:04.113Z,18.48
2023-02-16T02:19:37.417Z,20.55
2023-02-16T02:22:58.014Z,21.38
2023-02-16T02:25:27.663Z,20.58
2023-02-16T02:27:57.942Z,20.15
2023-02-16T02:30:41.476Z,14.85
2023-02-16T02:33:26.156Z,23.27
2023-02-16T02:36:08.620Z,21.67
2023-02-16T02:39:01.140Z,19.63
2023-02-16T02:42:06.567Z,17.83
2023-02-16T02:45:10.150Z,22.75
2023-02-16T02:47:42.216Z,20.25
2023-02-16T02:50:36.796Z,13.60
2023-02-16T02:53:13.108Z,22.77
2023-02-16T02:56:08.860Z,21.38
2023-02-16T02:58:55.986Z,23.55
2023-02-16T03:01:24.081Z,21.55
2023-02-16T03:03:55.325Z,22.45
2023-02-16T03:06:27.499Z,23.60
2023-02-16T03:09:00.457Z,22.57
2023-02-16T03:14:18.300Z,19.80
2023-02-16T03:16:49.579Z,23.88
2023-02-16T03:19:37.191Z,24.98
2023-02-16T03:22:23.837Z,22.88
2023-02-16T03:25:09.058Z,24.10
2023-02-16T03:27:58.081Z,24.13
2023-02-16T03:30:27.175Z,24.92
2023-02-16T03:32:54.867Z,23.08
2023-02-16T03:35:22.357Z,26.42
2023-02-16T03:37:49.430Z,23.83
2023-02-16T03:40:29.977Z,24.23
2023-02-16T03:43:00.655Z,22.42
2023-02-16T03:45:28.406Z,22.95
2023-02-16T03:47:55.599Z,23.98
2023-02-16T03:50:22.919Z,26.02
2023-02-16T03:52:50.329Z,24.40
2023-02-16T03:55:17.348Z,24.88
2023-02-16T03:57:44.177Z,25.55
2023-02-16T04:00:11.671Z,17.75
2023-02-16T04:02:38.914Z,26.20
2023-02-16T04:05:06.017Z,27.13
2023-02-16T04:07:33.237Z,25.65
2023-02-16T04:10:00.517Z,27.77
2023-02-16T04:12:37.098Z,26.90
2023-02-16T04:15:09.964Z,26.35
2023-02-16T04:17:37.396Z,27.27
2023-02-16T04:20:05.585Z,26.58
2023-02-16T04:22:32.869Z,25.13
2023-02-16T04:25:00.116Z,25.55
2023-02-16T04:27:27.340Z,26.63
2023-02-16T04:29:54.611Z,26.73
2023-02-16T04:32:21.467Z,26.13
2023-02-16T04:34:48.687Z,26.00
2023-02-16T04:37:16.020Z,24.17
2023-02-16T04:39:43.289Z,26.38
2023-02-16T04:42:10.162Z,20.85
2023-02-16T04:44:37.456Z,25.60
2023-02-16T04:47:04.534Z,25.48
2023-02-16T04:49:31.357Z,23.77
2023-02-16T04:51:58.660Z,25.77
2023-02-16T04:54:25.858Z,26.88
2023-02-16T04:56:53.149Z,26.35
2023-02-16T04:59:20.708Z,24.17
2023-02-16T05:01:47.694Z,26.25
2023-02-16T05:04:14.975Z,26.92
2023-02-16T05:06:42.269Z,26.45
2023-02-16T05:09:09.937Z,25.98
2023-02-16T05:11:56.025Z,27.45
2023-02-16T05:14:47.049Z,26.98
2023-02-16T05:17:23.765Z,22.60
2023-02-16T05:19:56.663Z,26.10
2023-02-16T05:22:24.140Z,26.42
2023-02-16T05:24:51.387Z,25.60
2023-02-16T05:27:22.275Z,28.20
2023-02-16T05:29:49.782Z,28.88
2023-02-16T05:32:17.516Z,26.35
2023-02-16T05:34:47.138Z,24.20
2023-02-16T05:37:15.630Z,28.27
2023-02-16T05:39:42.500Z,28.50
2023-02-16T05:42:09.807Z,28.08
2023-02-16T05:44:37.861Z,26.45
2023-02-16T05:47:05.121Z,25.30
2023-02-16T05:49:31.990Z,27.17
2023-02-16T05:51:59.174Z,24.50
2023-02-16T05:54:26.163Z,25.85
2023-02-16T05:56:53.610Z,26.40
2023-02-16T05:59:20.942Z,24.13
2023-02-16T06:01:51.645Z,29.30
2023-02-16T06:04:20.239Z,27.40
2023-02-16T06:06:47.515Z,24.98
2023-02-16T06:09:14.415Z,26.42
2023-02-16T06:11:41.618Z,17.17
2023-02-16T06:14:08.952Z,26.77
2023-02-16T06:16:37.420Z,20.67
2023-02-16T06:19:05.485Z,19.80
2023-02-16T06:21:33.135Z,26.50
2023-02-16T06:23:59.990Z,28.35
2023-02-16T06:26:27.136Z,25.23
2023-02-16T06:28:55.141Z,19.77
2023-02-16T06:31:22.709Z,21.42
2023-02-16T06:33:49.953Z,28.38
2023-02-16T06:36:17.399Z,22.60
2023-02-16T06:38:44.700Z,26.15
2023-02-16T06:41:12.195Z,22.48
2023-02-16T06:43:39.493Z,26.02
2023-02-16T06:46:06.771Z,23.15
2023-02-16T06:48:33.725Z,25.70
2023-02-16T06:51:01.041Z,26.55
2023-02-16T06:53:28.226Z,27.25
2023-02-16T06:55:55.499Z,26.08
2023-02-16T06:58:22.816Z,26.85
2023-02-16T07:00:50.075Z,22.50
2023-02-16T07:03:17.331Z,28.10
2023-02-16T07:05:44.228Z,27.45
2023-02-16T07:08:11.434Z,26.17
2023-02-16T07:10:49.847Z,28.48
2023-02-16T07:13:17.756Z,26.30
2023-02-16T07:15:45.014Z,28.15
2023-02-16T07:18:12.234Z,24.13
2023-02-16T07:20:40.197Z,27.42
2023-02-16T07:23:07.069Z,28.52
2023-02-16T07:25:36.037Z,26.58
2023-02-16T07:28:04.060Z,28.23
2023-02-16T07:30:31.412Z,30.45
2023-02-16T07:32:58.710Z,30.65
2023-02-16T07:35:25.916Z,31.92
2023-02-16T07:37:52.800Z,29.63
2023-02-16T07:40:19.798Z,30.65
2023-02-16T07:42:46.768Z,30.23
2023-02-16T07:45:13.655Z,31.30
2023-02-16T07:47:40.904Z,29.92
2023-02-16T07:50:08.476Z,30.58
2023-02-16T07:52:35.394Z,26.60
2023-02-16T07:55:02.226Z,31.25
2023-02-16T07:57:30.036Z,29.08
2023-02-16T07:59:57.769Z,27.35
2023-02-16T08:02:24.879Z,32.15
2023-02-16T08:04:53.118Z,32.47
2023-02-16T08:07:20.472Z,33.83
2023-02-16T08:09:47.774Z,33.67
2023-02-16T08:12:16.272Z,32.92
2023-02-16T08:14:43.683Z,33.20
2023-02-16T08:17:10.624Z,31.80
2023-02-16T08:19:37.884Z,33.55
2023-02-16T08:22:06.459Z,33.03
2023-02-16T08:24:34.159Z,32.92
2023-02-16T08:27:03.948Z,30.00
2023-02-16T08:29:31.661Z,30.77
2023-02-16T08:31:58.765Z,36.80
2023-02-16T08:34:27.120Z,35.42
2023-02-16T08:36:56.668Z,31.25
2023-02-16T08:39:31.844Z,33.92
2023-02-16T08:42:00.296Z,35.10
2023-02-16T08:44:29.091Z,33.17
2023-02-16T08:46:59.379Z,35.50
2023-02-16T08:49:27.680Z,32.33
2023-02-16T08:51:57.474Z,37.97
2023-02-16T08:54:30.368Z,35.28
2023-02-16T08:56:59.800Z,35.78
2023-02-16T08:59:28.811Z,36.88
2023-02-16T09:01:58.265Z,36.58
2023-02-16T09:04:27.558Z,36.22
2023-02-16T09:06:56.242Z,36.17
2023-02-16T09:09:23.105Z,36.63
2023-02-16T09:11:50.656Z,36.38
2023-02-16T09:14:23.042Z,38.10
2023-02-16T09:16:50.054Z,37.80
2023-02-16T09:19:20.718Z,34.47
2023-02-16T09:21:50.706Z,36.97
2023-02-16T09:24:18.002Z,37.03
2023-02-16T09:26:45.362Z,36.10
2023-02-16T09:29:14.018Z,33.08
2023-02-16T09:31:42.353Z,36.15
2023-02-16T09:34:22.205Z,33.85
2023-02-16T09:36:50.209Z,37.10
2023-02-16T09:39:17.860Z,36.45
2023-02-16T09:41:59.669Z,34.08
2023-02-16T09:44:29.534Z,34.72
2023-02-16T09:47:01.550Z,34.70
2023-02-16T09:49:28.802Z,34.67
2023-02-16T09:52:27.909Z,37.05
2023-02-16T09:54:59.881Z,36.85
2023-02-16T09:57:48.788Z,34.72
2023-02-16T10:00:30.022Z,36.22
2023-02-16T10:03:21.717Z,36.28
2023-02-16T10:06:13.672Z,34.00
2023-02-16T10:09:08.771Z,30.25
2023-02-16T10:11:51.020Z,37.03
2023-02-16T10:14:45.796Z,32.60
2023-02-16T10:17:37.690Z,32.72
2023-02-16T10:20:18.658Z,33.60
2023-02-16T10:22:55.293Z,35.15
2023-02-16T10:25:29.480Z,34.17
2023-02-16T10:28:22.813Z,32.58
2023-02-16T10:33:45.216Z,34.55
2023-02-16T10:36:34.125Z,30.67
2023-02-16T10:39:22.998Z,31.83
2023-02-16T10:42:06.594Z,31.77
2023-02-16T10:44:45.974Z,31.25
2023-02-16T10:47:37.318Z,32.92
2023-02-16T10:50:07.177Z,34.22
2023-02-16T10:52:39.552Z,33.03
2023-02-16T10:55:07.098Z,32.70
2023-02-16T10:57:34.368Z,33.17
2023-02-16T11:00:10.447Z,31.63
2023-02-16T11:02:44.262Z,30.25
2023-02-16T11:05:26.511Z,33.28
2023-02-16T11:08:01.526Z,32.83
2023-02-16T11:10:48.908Z,32.72
2023-02-16T11:13:37.409Z,35.10
2023-02-16T11:16:13.903Z,34.70
2023-02-16T11:18:43.734Z,32.80
2023-02-16T11:21:12.325Z,32.78
2023-02-16T11:23:44.225Z,31.95
2023-02-16T11:26:11.807Z,33.65
2023-02-16T11:28:44.226Z,33.78
2023-02-16T11:31:24.952Z,36.85
2023-02-16T11:34:03.310Z,34.03
2023-02-16T11:36:37.709Z,32.33
2023-02-16T11:39:25.622Z,33.10
2023-02-16T11:42:08.197Z,35.60
2023-02-16T11:44:51.257Z,34.28
2023-02-16T11:47:39.668Z,36.17
2023-02-16T11:50:21.582Z,33.17
2023-02-16T11:52:51.890Z,35.90
2023-02-16T11:55:33.482Z,34.85
2023-02-16T11:58:20.295Z,35.85
2023-02-16T12:01:04.983Z,34.50
2023-02-16T12:03:33.653Z,35.70
2023-02-16T12:06:19.593Z,35.10
2023-02-16T12:09:09.811Z,35.83
2023-02-16T12:11:45.627Z,36.05
2023-02-16T12:14:33.667Z,38.00
2023-02-16T12:17:28.220Z,33.72
2023-02-16T12:22:44.694Z,34.85
2023-02-16T12:25:36.865Z,33.63
2023-02-16T12:28:16.147Z,35.05
2023-02-16T12:31:11.586Z,31.60
2023-02-16T12:33:57.401Z,31.33
2023-02-16T12:36:46.928Z,32.83
2023-02-16T12:39:13.804Z,31.60
2023-02-16T12:41:47.510Z,30.63
2023-02-16T12:44:42.873Z,38.97
2023-02-16T12:47:14.696Z,31.25
2023-02-16T12:49:54.063Z,33.53
2023-02-16T12:52:56.493Z,30.63
2023-02-16T12:55:23.702Z,31.70
2023-02-16T12:58:15.008Z,30.65
2023-02-16T13:00:48.874Z,31.98
2023-02-16T13:03:16.242Z,27.15
2023-02-16T13:05:45.640Z,30.55
2023-02-16T13:08:39.235Z,31.20
2023-02-16T13:13:49.925Z,30.15
2023-02-16T13:16:30.854Z,30.73
2023-02-16T13:18:58.703Z,30.92
2023-02-16T13:21:56.847Z,30.05
2023-02-16T13:24:32.470Z,30.33
2023-02-16T13:27:31.393Z,31.00
2023-02-16T13:30:22.985Z,29.08
2023-02-16T13:33:22.997Z,32.50
2023-02-16T13:35:53.159Z,30.40
2023-02-16T13:38:23.058Z,32.05
2023-02-16T13:41:09.524Z,32.33
2023-02-16T13:43:47.961Z,32.85
2023-02-16T13:46:25.202Z,32.05
2023-02-16T13:48:55.569Z,31.20
2023-02-16T13:51:25.688Z,33.53
2023-02-16T13:53:57.025Z,32.65
2023-02-16T13:56:24.199Z,31.98
2023-02-16T13:58:53.351Z,31.92
2023-02-16T14:01:32.004Z,35.20
2023-02-16T14:04:01.526Z,30.17
2023-02-16T14:06:32.553Z,32.03
2023-02-16T14:09:14.599Z,29.75
2023-02-16T14:11:53.595Z,31.05
2023-02-16T14:14:31.454Z,31.42
2023-02-16T14:17:16.754Z,31.55
2023-02-16T14:20:05.320Z,31.92
2023-02-16T14:22:43.660Z,31.77
2023-02-16T14:25:22.591Z,31.55
2023-02-16T14:28:26.944Z,33.63
2023-02-16T14:30:56.134Z,31.25
2023-02-16T14:33:40.870Z,34.05
2023-02-16T14:36:19.722Z,30.02
2023-02-16T14:38:52.078Z,32.70
2023-02-16T14:41:32.499Z,32.55
2023-02-16T14:43:59.800Z,31.10
2023-02-16T14:47:00.955Z,33.28
2023-02-16T14:49:58.229Z,33.33
2023-02-16T14:52:49.806Z,32.60
2023-02-16T14:55:38.220Z,32.92
2023-02-16T14:58:38.127Z,30.88
2023-02-16T15:01:13.955Z,33.17
2023-02-16T15:03:41.540Z,34.03
2023-02-16T15:06:35.204Z,33.75
2023-02-16T15:15:01.572Z,31.95
2023-02-16T15:17:44.981Z,33.05
2023-02-16T15:22:56.088Z,35.58
2023-02-16T15:25:24.975Z,38.17
2023-02-16T15:28:00.957Z,37.72
2023-02-16T15:30:30.401Z,37.92
2023-02-16T15:33:27.991Z,38.58
2023-02-16T15:36:04.966Z,35.33
2023-02-16T15:38:38.173Z,36.25
2023-02-16T15:41:26.431Z,36.33
2023-02-16T15:43:53.363Z,34.25
2023-02-16T15:46:31.673Z,30.48
2023-02-16T15:49:00.075Z,29.08
2023-02-16T15:51:31.701Z,29.20
2023-02-16T15:54:08.045Z,30.27
2023-02-16T15:56:49.139Z,27.05
2023-02-16T15:59:35.876Z,27.75
2023-02-16T16:02:18.702Z,27.02
2023-02-16T16:04:56.805Z,26.65
2023-02-16T16:07:29.918Z,25.10
2023-02-16T16:09:57.827Z,25.42
2023-02-16T16:12:26.431Z,26.88
2023-02-16T16:14:58.727Z,25.25
2023-02-16T16:17:33.992Z,24.17
2023-02-16T16:20:24.234Z,25.13
2023-02-16T16:23:05.821Z,23.30
2023-02-16T16:25:51.422Z,22.48
2023-02-16T16:28:27.279Z,23.00
2023-02-16T16:31:10.516Z,23.05
2023-02-16T16:33:59.922Z,25.48
2023-02-16T16:36:35.220Z,23.35
2023-02-16T16:39:10.508Z,23.10
2023-02-16T16:41:40.246Z,23.83
2023-02-16T16:44:12.367Z,24.85
2023-02-16T16:46:39.469Z,23.58
2023-02-16T16:49:15.851Z,25.58
2023-02-16T16:51:43.704Z,26.73
2023-02-16T16:54:32.859Z,28.02
2023-02-16T16:57:03.112Z,26.42
2023-02-16T16:59:30.393Z,27.88
2023-02-16T17:01:57.792Z,29.98
2023-02-16T17:04:26.621Z,32.78
2023-02-16T17:06:53.999Z,34.65
2023-02-16T17:09:21.491Z,33.40
2023-02-16T17:11:48.290Z,33.47
2023-02-16T17:14:18.068Z,30.00
2023-02-16T17:16:52.861Z,29.27
2023-02-16T17:19:22.498Z,27.50
2023-02-16T17:21:49.939Z,26.92
2023-02-16T17:24:17.613Z,28.23
2023-02-16T17:26:44.908Z,34.17
2023-02-16T17:29:12.227Z,27.52
2023-02-16T17:31:39.655Z,27.77
2023-02-16T17:34:06.970Z,25.20
2023-02-16T17:36:34.567Z,26.45
2023-02-16T17:39:02.113Z,25.15
2023-02-16T17:41:30.008Z,26.40
2023-02-16T17:43:57.309Z,28.52
2023-02-16T17:46:26.831Z,28.33
2023-02-16T17:48:55.388Z,28.77
2023-02-16T17:51:24.912Z,26.23
2023-02-16T17:53:55.691Z,29.23
2023-02-16T17:56:23.922Z,30.08
2023-02-16T17:58:53.826Z,30.60
2023-02-16T18:01:21.657Z,29.67
2023-02-16T18:03:49.104Z,32.65
2023-02-16T18:06:21.698Z,35.85
2023-02-16T18:08:48.912Z,34.72
2023-02-16T18:11:16.436Z,38.30
2023-02-16T18:13:43.812Z,38.30
2023-02-16T18:16:21.595Z,35.45
2023-02-16T18:18:48.881Z,37.20
2023-02-16T18:21:18.749Z,35.22
2023-02-16T18:23:46.408Z,35.10
2023-02-16T18:26:15.299Z,32.35
2023-02-16T18:28:42.641Z,32.70
2023-02-16T18:31:10.461Z,33.33
2023-02-16T18:33:37.866Z,31.45
2023-02-16T18:36:05.246Z,30.88
2023-02-16T18:38:32.972Z,33.53
2023-02-16T18:40:59.876Z,31.50
2023-02-16T18:43:27.251Z,30.50
2023-02-16T18:45:54.496Z,32.72
2023-02-16T18:48:21.863Z,32.35
2023-02-16T18:50:49.115Z,31.58
2023-02-16T18:53:16.391Z,30.45
2023-02-16T18:55:43.598Z,32.15
2023-02-16T18:58:13.326Z,31.00
2023-02-16T19:00:40.405Z,32.10
2023-02-16T19:03:07.848Z,33.50
2023-02-16T19:05:35.203Z,30.08
2023-02-16T19:08:02.515Z,30.88
2023-02-16T19:10:30.124Z,32.33
2023-02-16T19:12:57.332Z,31.23
2023-02-16T19:15:25.134Z,30.02
2023-02-16T19:17:52.438Z,31.95
2023-02-16T19:20:19.796Z,32.70
2023-02-16T19:22:47.653Z,31.05
2023-02-16T19:25:15.489Z,30.88
2023-02-16T19:27:43.498Z,31.77
2023-02-16T19:30:10.909Z,30.85
2023-02-16T19:32:41.003Z,30.27
2023-02-16T19:35:12.531Z,32.13
2023-02-16T19:37:39.704Z,30.13
2023-02-16T19:40:09.315Z,31.35
2023-02-16T19:42:39.671Z,32.90
2023-02-16T19:45:07.129Z,35.53
2023-02-16T19:47:34.418Z,32.22
2023-02-16T19:50:01.666Z,33.42
2023-02-16T19:52:31.430Z,33.53
2023-02-16T19:54:58.325Z,33.50
2023-02-16T19:57:25.858Z,31.27
2023-02-16T19:59:52.790Z,32.03
2023-02-16T20:02:19.755Z,30.25
2023-02-16T20:04:47.039Z,31.25
2023-02-16T20:07:14.250Z,29.65
2023-02-16T20:09:41.799Z,31.13
2023-02-16T20:12:09.222Z,30.70
2023-02-16T20:14:43.801Z,28.70
2023-02-16T20:17:10.686Z,31.42
2023-02-16T20:19:37.896Z,30.17
2023-02-16T20:22:04.766Z,30.13
2023-02-16T20:24:31.976Z,30.33
2023-02-16T20:27:04.297Z,29.10
2023-02-16T20:29:32.109Z,31.40
2023-02-16T20:31:59.064Z,32.50
2023-02-16T20:34:27.765Z,30.05
2023-02-16T20:36:55.509Z,29.23
2023-02-16T20:39:22.871Z,27.35
2023-02-16T20:41:51.056Z,32.97
2023-02-16T20:44:18.295Z,32.75
2023-02-16T20:46:45.289Z,33.28
2023-02-16T20:49:14.693Z,34.45
2023-02-16T20:51:41.607Z,35.60
2023-02-16T20:54:08.704Z,34.13
2023-02-16T20:56:35.951Z,34.92
2023-02-16T20:59:03.183Z,34.85
2023-02-16T21:01:39.959Z,31.92
2023-02-16T21:04:08.754Z,29.55
2023-02-16T21:06:36.720Z,34.58
2023-02-16T21:09:07.778Z,31.77
2023-02-16T21:11:35.123Z,31.55
2023-02-16T21:14:03.245Z,29.50
2023-02-16T21:16:30.739Z,30.23
2023-02-16T21:18:58.164Z,31.55
2023-02-16T21:21:28.213Z,32.40
2023-02-16T21:23:55.797Z,30.13
2023-02-16T21:26:24.646Z,32.58
2023-02-16T21:28:52.574Z,32.03
2023-02-16T21:31:23.539Z,32.42
2023-02-16T21:33:51.572Z,34.50
2023-02-16T21:36:21.863Z,29.77
2023-02-16T21:38:49.235Z,37.92
2023-02-16T21:41:25.568Z,29.55
2023-02-16T21:43:53.405Z,29.88
2023-02-16T21:46:22.609Z,30.80
2023-02-16T21:48:53.209Z,30.13
2023-02-16T21:51:24.287Z,31.20
2023-02-16T21:53:51.718Z,28.60
2023-02-16T21:56:33.883Z,28.33
2023-02-16T21:59:01.495Z,31.65
2023-02-16T22:01:56.482Z,31.10
2023-02-16T22:04:23.516Z,28.55
2023-02-16T22:06:51.378Z,30.20
2023-02-16T22:09:21.579Z,31.13
2023-02-16T22:11:49.444Z,30.33
2023-02-16T22:14:16.729Z,31.65
2023-02-16T22:16:45.439Z,32.42
2023-02-16T22:19:14.096Z,31.55
2023-02-16T22:21:42.362Z,31.45
2023-02-16T22:24:12.617Z,32.00
2023-02-16T22:26:39.892Z,30.75
2023-02-16T22:29:07.881Z,35.17
2023-02-16T22:31:35.787Z,30.10
2023-02-16T22:34:08.614Z,29.33
2023-02-16T22:36:37.438Z,31.38
2023-02-16T22:39:04.641Z,32.10
2023-02-16T22:41:31.925Z,30.77
2023-02-16T22:44:02.299Z,31.65
2023-02-16T22:46:30.152Z,30.50
2023-02-16T22:48:58.839Z,33.22
2023-02-16T22:51:29.457Z,37.28
2023-02-16T22:53:58.747Z,29.80
2023-02-16T22:56:27.012Z,29.15
2023-02-16T22:58:57.527Z,29.92
2023-02-16T23:01:26.464Z,31.85
2023-02-16T23:03:57.624Z,30.17
2023-02-16T23:06:31.140Z,28.90
2023-02-16T23:09:00.684Z,27.73
2023-02-16T23:11:28.068Z,30.85
2023-02-16T23:13:55.081Z,27.15
2023-02-16T23:16:24.270Z,31.38
2023-02-16T23:18:51.586Z,29.65
2023-02-16T23:21:19.730Z,28.58
2023-02-16T23:23:47.614Z,30.88
2023-02-16T23:26:14.863Z,28.98
2023-02-16T23:28:43.322Z,31.17
2023-02-16T23:31:12.682Z,29.08
2023-02-16T23:33:40.166Z,30.83
2023-02-16T23:36:07.719Z,30.00
2023-02-16T23:38:35.074Z,31.95
2023-02-16T23:41:09.422Z,31.08
2023-02-16T23:43:36.980Z,33.80
2023-02-16T23:46:05.705Z,32.30
2023-02-16T23:48:32.709Z,30.17
2023-02-16T23:51:00.125Z,30.17
2023-02-16T23:53:28.404Z,33.40
2023-02-16T23:56:07.991Z,31.45
2023-02-16T23:58:37.661Z,30.90
